Time;durP1;ratioP1;P1;durP2;ratioP2;P2;SDS_P1;SDS_P2;PMS_P1;PMS_P2;Temp;Humidity;BMP_temperature;BMP_pressure;BME280_temperature;BME280_humidity;BME280_pressure;Samples;Min_cycle;Max_cycle;Signal;HPM_P1;HPM_P2
2022/05/27 00:00:42;;;;;;;13.48;3.70;;;;;;;;;;5050427;28;20443;-74
2022/05/27 00:03:10;;;;;;;16.58;3.92;;;;;;;;;;5056892;28;20134;-74
2022/05/27 00:05:36;;;;;;;13.85;3.45;;;;;;;;;;5082748;28;20512;-73
2022/05/27 00:08:03;;;;;;;15.43;3.75;;;;;;;;;;5072817;28;20136;-73
2022/05/27 00:10:29;;;;;;;13.70;4.68;;;;;;;;;;5043244;28;20048;-73
2022/05/27 00:12:55;;;;;;;11.95;2.80;;;;;;;;;;5081277;28;20049;-75
2022/05/27 00:15:22;;;;;;;13.45;2.78;;;;;;;;;;5083266;28;20143;-73
2022/05/27 00:17:48;;;;;;;8.55;2.10;;;;;;;;;;5083289;28;20113;-74
2022/05/27 00:20:14;;;;;;;8.40;2.10;;;;;;;;;;5065587;28;20554;-73
2022/05/27 00:22:41;;;;;;;9.15;2.17;;;;;;;;;;5080613;28;20098;-74
2022/05/27 00:25:07;;;;;;;10.38;2.40;;;;;;;;;;5083229;28;20088;-74
2022/05/27 00:27:33;;;;;;;8.95;2.40;;;;;;;;;;5074323;28;20045;-73
2022/05/27 00:30:00;;;;;;;8.32;2.00;;;;;;;;;;5060905;28;20118;-74
2022/05/27 00:32:28;;;;;;;9.60;2.30;;;;;;;;;;5083534;28;20057;-72
2022/05/27 00:34:54;;;;;;;6.53;2.30;;;;;;;;;;5071946;28;20127;-72
2022/05/27 00:37:21;;;;;;;11.68;2.67;;;;;;;;;;5066683;28;20056;-74
2022/05/27 00:39:48;;;;;;;8.45;2.35;;;;;;;;;;5081275;28;20515;-72
2022/05/27 00:42:14;;;;;;;6.47;2.30;;;;;;;;;;5080063;28;20059;-75
2022/05/27 00:44:40;;;;;;;10.32;2.50;;;;;;;;;;5082640;28;20052;-74
2022/05/27 00:47:08;;;;;;;7.63;2.50;;;;;;;;;;5071804;28;20515;-73
2022/05/27 00:49:40;;;;;;;8.70;2.60;;;;;;;;;;5045224;28;20049;-73
2022/05/27 00:52:09;;;;;;;11.57;3.20;;;;;;;;;;5042308;28;20808;-74
2022/05/27 00:54:36;;;;;;;9.52;2.30;;;;;;;;;;5058519;28;20512;-75
2022/05/27 00:57:07;;;;;;;6.05;2.22;;;;;;;;;;5050640;28;20099;-77
2022/05/27 00:59:37;;;;;;;7.60;2.40;;;;;;;;;;5084624;28;20849;-78
2022/05/27 01:02:03;;;;;;;8.40;2.42;;;;;;;;;;5085794;28;20048;-74
2022/05/27 01:04:31;;;;;;;10.52;2.97;;;;;;;;;;5069424;28;20059;-76
2022/05/27 01:06:57;;;;;;;12.90;3.58;;;;;;;;;;5064681;28;20453;-77
2022/05/27 01:09:24;;;;;;;7.22;2.78;;;;;;;;;;5063524;28;20045;-75
2022/05/27 01:11:59;;;;;;;10.57;2.90;;;;;;;;;;5065243;28;20143;-76
2022/05/27 01:14:39;;;;;;;12.02;3.10;;;;;;;;;;5070259;28;20053;-77
2022/05/27 01:17:12;;;;;;;9.50;3.40;;;;;;;;;;5058028;28;20135;-74
2022/05/27 01:22:40;;;;;;;10.75;3.15;;;;;;;;;;5085445;28;20559;-77
2022/05/27 01:25:25;;;;;;;11.88;3.42;;;;;;;;;;5067431;28;20122;-76
2022/05/27 01:28:08;;;;;;;12.95;3.45;;;;;;;;;;5080199;28;20048;-76
2022/05/27 01:30:37;;;;;;;12.07;3.67;;;;;;;;;;5068660;28;20052;-77
2022/05/27 01:33:22;;;;;;;13.15;3.42;;;;;;;;;;5084060;28;20141;-76
2022/05/27 01:36:04;;;;;;;12.82;3.20;;;;;;;;;;5080253;28;20142;-75
2022/05/27 01:38:53;;;;;;;10.55;3.00;;;;;;;;;;5061621;28;20063;-77
2022/05/27 01:41:31;;;;;;;13.63;3.10;;;;;;;;;;5066174;28;20075;-75
2022/05/27 01:44:02;;;;;;;7.80;2.70;;;;;;;;;;5068034;28;20057;-77
2022/05/27 01:46:35;;;;;;;11.70;3.10;;;;;;;;;;5073483;28;20060;-75
2022/05/27 01:49:05;;;;;;;10.48;2.80;;;;;;;;;;5082554;28;20060;-75
2022/05/27 01:51:37;;;;;;;10.48;3.28;;;;;;;;;;5084953;28;20488;-75
2022/05/27 01:54:11;;;;;;;15.82;3.53;;;;;;;;;;5083912;28;20535;-77
2022/05/27 01:56:41;;;;;;;13.82;3.85;;;;;;;;;;5066795;28;20057;-75
2022/05/27 01:59:11;;;;;;;11.07;3.38;;;;;;;;;;5069411;28;20055;-75
2022/05/27 02:01:46;;;;;;;14.03;3.27;;;;;;;;;;5047217;28;20148;-74
2022/05/27 02:04:17;;;;;;;13.07;3.00;;;;;;;;;;5074009;28;20083;-75
2022/05/27 02:06:46;;;;;;;15.00;4.00;;;;;;;;;;5081932;28;20053;-74
2022/05/27 02:09:16;;;;;;;10.32;3.30;;;;;;;;;;5086146;28;20056;-74
2022/05/27 02:11:44;;;;;;;7.25;2.90;;;;;;;;;;5062514;28;20139;-74
2022/05/27 02:14:24;;;;;;;14.77;3.10;;;;;;;;;;5066993;28;20578;-74
2022/05/27 02:16:53;;;;;;;10.45;2.90;;;;;;;;;;5063651;28;20049;-74
2022/05/27 02:19:20;;;;;;;9.63;2.88;;;;;;;;;;5084853;28;20048;-75
2022/05/27 02:21:48;;;;;;;10.73;3.10;;;;;;;;;;5067502;28;20056;-75
2022/05/27 02:24:18;;;;;;;9.30;2.70;;;;;;;;;;5066709;28;20139;-75
2022/05/27 02:26:47;;;;;;;10.30;3.30;;;;;;;;;;5084244;28;20052;-75
2022/05/27 02:29:16;;;;;;;9.10;2.95;;;;;;;;;;5075787;28;20057;-76
2022/05/27 02:31:46;;;;;;;12.13;2.80;;;;;;;;;;5078024;28;20087;-75
2022/05/27 02:37:18;;;;;;;9.65;2.40;;;;;;;;;;5077838;28;20063;-75
2022/05/27 02:39:45;;;;;;;8.60;2.83;;;;;;;;;;5062296;28;20499;-75
2022/05/27 02:42:14;;;;;;;9.95;2.53;;;;;;;;;;5062581;28;20128;-75
2022/05/27 02:44:59;;;;;;;8.48;2.70;;;;;;;;;;5047105;28;20127;-75
2022/05/27 02:47:31;;;;;;;9.35;2.78;;;;;;;;;;5081597;28;20052;-75
2022/05/27 02:50:10;;;;;;;10.45;2.95;;;;;;;;;;5085432;28;20284;-75
2022/05/27 02:52:47;;;;;;;11.60;3.08;;;;;;;;;;5084520;28;20635;-75
2022/05/27 02:55:13;;;;;;;10.23;2.67;;;;;;;;;;5083379;28;20052;-75
2022/05/27 02:57:42;;;;;;;12.80;2.70;;;;;;;;;;5080850;28;20062;-75
2022/05/27 03:00:11;;;;;;;11.13;3.15;;;;;;;;;;5065024;28;20140;-75
2022/05/27 03:02:37;;;;;;;10.05;3.30;;;;;;;;;;5053503;28;20053;-75
2022/05/27 03:05:04;;;;;;;10.70;3.08;;;;;;;;;;5047726;28;20060;-75
2022/05/27 03:07:30;;;;;;;9.95;3.20;;;;;;;;;;5075761;28;20053;-75
2022/05/27 03:10:08;;;;;;;14.52;3.58;;;;;;;;;;5075053;28;20099;-75
2022/05/27 03:12:42;;;;;;;7.30;3.00;;;;;;;;;;5045302;28;20555;-75
2022/05/27 03:15:27;;;;;;;7.70;2.88;;;;;;;;;;5074170;28;21122;-75
2022/05/27 03:18:08;;;;;;;12.18;3.35;;;;;;;;;;5083632;28;20190;-75
2022/05/27 03:20:42;;;;;;;8.75;2.78;;;;;;;;;;5062543;28;20045;-75
2022/05/27 03:23:15;;;;;;;9.40;3.15;;;;;;;;;;5064925;28;20879;-75
2022/05/27 03:25:54;;;;;;;11.40;3.33;;;;;;;;;;5065328;28;20147;-75
2022/05/27 03:28:28;;;;;;;10.48;3.25;;;;;;;;;;5061806;28;20139;-75
2022/05/27 03:31:05;;;;;;;7.28;3.38;;;;;;;;;;5055838;28;20526;-75
2022/05/27 03:33:35;;;;;;;15.95;3.63;;;;;;;;;;5080257;28;20079;-75
2022/05/27 03:36:06;;;;;;;10.77;3.17;;;;;;;;;;5065920;28;20135;-75
2022/05/27 03:38:39;;;;;;;10.23;3.22;;;;;;;;;;5045957;28;20559;-75
2022/05/27 03:41:35;;;;;;;9.77;3.17;;;;;;;;;;5054070;28;20499;-75
2022/05/27 03:44:01;;;;;;;7.82;3.20;;;;;;;;;;5054199;28;20125;-75
2022/05/27 03:46:30;;;;;;;13.82;3.30;;;;;;;;;;5073673;28;20380;-75
2022/05/27 03:48:56;;;;;;;17.30;3.58;;;;;;;;;;5065787;28;20136;-75
2022/05/27 03:51:25;;;;;;;11.75;3.65;;;;;;;;;;5077935;28;20160;-75
2022/05/27 03:54:04;;;;;;;19.70;4.20;;;;;;;;;;5061763;28;20053;-75
2022/05/27 03:56:40;;;;;;;17.90;3.97;;;;;;;;;;5071547;28;20585;-75
2022/05/27 03:59:07;;;;;;;14.15;3.35;;;;;;;;;;5075609;28;20523;-75
2022/05/27 04:01:35;;;;;;;15.27;4.13;;;;;;;;;;5083231;28;20059;-75
2022/05/27 04:04:04;;;;;;;12.35;3.67;;;;;;;;;;5076774;28;20104;-75
2022/05/27 04:06:31;;;;;;;13.50;4.25;;;;;;;;;;5061545;28;20088;-74
2022/05/27 04:08:57;;;;;;;15.00;4.18;;;;;;;;;;5075440;28;20424;-75
2022/05/27 04:11:24;;;;;;;14.52;3.95;;;;;;;;;;5080472;28;20048;-75
2022/05/27 04:13:51;;;;;;;17.58;4.97;;;;;;;;;;5077005;28;20052;-75
2022/05/27 04:16:17;;;;;;;16.70;4.55;;;;;;;;;;5081129;28;20052;-74
2022/05/27 04:18:44;;;;;;;16.77;4.63;;;;;;;;;;5083179;28;20076;-74
2022/05/27 04:21:10;;;;;;;16.38;5.38;;;;;;;;;;5076028;28;20170;-74
2022/05/27 04:23:36;;;;;;;15.15;4.22;;;;;;;;;;5080050;28;20049;-74
2022/05/27 04:26:03;;;;;;;16.98;4.13;;;;;;;;;;5078891;28;20056;-74
2022/05/27 04:28:30;;;;;;;14.15;4.72;;;;;;;;;;5083579;28;20091;-75
2022/05/27 04:30:56;;;;;;;21.77;5.03;;;;;;;;;;5082280;28;20413;-75
2022/05/27 04:33:23;;;;;;;20.73;4.22;;;;;;;;;;5080970;28;20530;-75
2022/05/27 04:35:49;;;;;;;15.43;4.57;;;;;;;;;;5063168;28;20057;-75
2022/05/27 04:38:15;;;;;;;17.25;4.40;;;;;;;;;;5062479;28;20128;-75
2022/05/27 04:40:42;;;;;;;18.95;5.03;;;;;;;;;;5065420;28;20047;-75
2022/05/27 04:43:08;;;;;;;19.27;5.00;;;;;;;;;;5079800;28;20052;-75
2022/05/27 04:45:35;;;;;;;14.73;4.00;;;;;;;;;;5082542;28;20083;-75
2022/05/27 04:48:01;;;;;;;13.57;4.28;;;;;;;;;;5072300;28;20559;-75
2022/05/27 04:50:28;;;;;;;17.23;4.53;;;;;;;;;;5078845;28;20505;-75
2022/05/27 04:52:54;;;;;;;12.50;4.80;;;;;;;;;;5082562;28;20053;-75
2022/05/27 04:55:22;;;;;;;18.67;4.95;;;;;;;;;;5064802;28;20132;-75
2022/05/27 04:57:51;;;;;;;15.85;4.90;;;;;;;;;;5045996;28;20080;-75
2022/05/27 05:00:19;;;;;;;14.80;4.60;;;;;;;;;;5056206;28;20049;-74
2022/05/27 05:02:45;;;;;;;17.08;4.85;;;;;;;;;;5061749;28;20063;-75
2022/05/27 05:05:16;;;;;;;15.20;4.30;;;;;;;;;;5061797;28;20052;-75
2022/05/27 05:07:44;;;;;;;16.33;4.50;;;;;;;;;;5066534;28;20469;-75
2022/05/27 05:10:12;;;;;;;19.42;4.45;;;;;;;;;;5062185;28;20053;-74
2022/05/27 05:12:38;;;;;;;14.75;3.88;;;;;;;;;;5064223;28;20087;-75
2022/05/27 05:15:05;;;;;;;13.82;4.20;;;;;;;;;;5078037;28;20595;-75
2022/05/27 05:17:31;;;;;;;13.20;4.13;;;;;;;;;;5053726;28;20613;-75
2022/05/27 05:19:57;;;;;;;15.75;4.55;;;;;;;;;;5061715;28;20057;-75
2022/05/27 05:22:24;;;;;;;10.55;4.10;;;;;;;;;;5072186;28;20147;-75
2022/05/27 05:24:53;;;;;;;13.40;3.58;;;;;;;;;;5078162;28;20570;-75
2022/05/27 05:27:21;;;;;;;14.43;3.90;;;;;;;;;;5081873;28;20057;-75
2022/05/27 05:29:47;;;;;;;12.57;3.60;;;;;;;;;;5076082;28;20693;-75
2022/05/27 05:32:14;;;;;;;10.95;3.72;;;;;;;;;;5064168;28;20156;-75
2022/05/27 05:34:40;;;;;;;12.02;3.40;;;;;;;;;;5081093;28;20044;-75
2022/05/27 05:37:07;;;;;;;17.05;3.30;;;;;;;;;;5081875;28;20133;-75
2022/05/27 05:39:36;;;;;;;11.23;3.60;;;;;;;;;;5062652;28;20052;-75
2022/05/27 05:42:04;;;;;;;14.40;3.75;;;;;;;;;;5063893;28;20045;-75
2022/05/27 05:44:30;;;;;;;10.95;3.05;;;;;;;;;;5067805;28;20053;-75
2022/05/27 05:46:56;;;;;;;10.63;3.13;;;;;;;;;;5078774;28;20517;-75
2022/05/27 05:49:23;;;;;;;12.13;3.00;;;;;;;;;;5085266;28;20102;-75
2022/05/27 05:51:50;;;;;;;13.68;2.78;;;;;;;;;;5073250;28;20060;-75
2022/05/27 05:54:16;;;;;;;8.13;2.50;;;;;;;;;;5073142;28;20053;-75
2022/05/27 05:56:43;;;;;;;6.28;1.98;;;;;;;;;;5066613;28;20147;-75
2022/05/27 05:59:09;;;;;;;10.43;2.55;;;;;;;;;;5083919;28;20056;-75
2022/05/27 06:01:35;;;;;;;8.40;2.42;;;;;;;;;;5078672;28;20131;-75
2022/05/27 06:04:02;;;;;;;12.02;2.53;;;;;;;;;;5076896;28;20053;-75
2022/05/27 06:06:28;;;;;;;10.68;2.10;;;;;;;;;;5063535;28;20520;-75
2022/05/27 06:08:54;;;;;;;6.93;2.05;;;;;;;;;;5066948;28;20571;-75
2022/05/27 06:11:21;;;;;;;9.75;2.30;;;;;;;;;;5070135;28;20126;-75
2022/05/27 06:13:47;;;;;;;13.60;2.15;;;;;;;;;;5083516;28;20055;-75
2022/05/27 06:16:13;;;;;;;11.27;2.10;;;;;;;;;;5078270;28;20175;-75
2022/05/27 06:18:40;;;;;;;9.23;1.92;;;;;;;;;;5047192;28;20048;-75
2022/05/27 06:21:06;;;;;;;10.52;1.65;;;;;;;;;;5066986;28;20103;-75
2022/05/27 06:23:33;;;;;;;9.02;1.85;;;;;;;;;;5066986;28;20519;-75
2022/05/27 06:26:00;;;;;;;10.45;1.77;;;;;;;;;;5085399;28;20048;-75
2022/05/27 06:36:43;;;;;;;13.15;2.08;;;;;;;;;;5085013;28;20135;-75
2022/05/27 06:39:10;;;;;;;10.15;2.03;;;;;;;;;;5075070;28;20059;-75
2022/05/27 06:41:36;;;;;;;9.15;2.03;;;;;;;;;;5080448;28;20144;-75
2022/05/27 06:44:03;;;;;;;12.18;1.67;;;;;;;;;;5082590;28;20590;-75
2022/05/27 06:46:29;;;;;;;9.95;2.50;;;;;;;;;;5080605;28;20590;-75
2022/05/27 06:48:56;;;;;;;8.45;2.05;;;;;;;;;;5066147;28;20547;-75
2022/05/27 06:51:23;;;;;;;9.02;2.10;;;;;;;;;;5076768;28;20087;-75
2022/05/27 06:53:49;;;;;;;11.73;1.90;;;;;;;;;;5066129;28;20056;-75
2022/05/27 06:56:15;;;;;;;8.80;2.13;;;;;;;;;;5046630;28;20048;-75
2022/05/27 06:58:42;;;;;;;9.35;2.03;;;;;;;;;;5069357;28;20061;-76
2022/05/27 07:01:09;;;;;;;9.52;2.20;;;;;;;;;;5053556;28;20542;-75
2022/05/27 07:03:37;;;;;;;11.75;1.85;;;;;;;;;;5057072;28;20055;-75
2022/05/27 07:06:05;;;;;;;9.02;2.08;;;;;;;;;;5071450;28;20056;-75
2022/05/27 07:08:31;;;;;;;12.80;2.50;;;;;;;;;;5065209;28;20461;-75
2022/05/27 07:10:57;;;;;;;10.18;1.90;;;;;;;;;;5065630;28;20442;-75
2022/05/27 07:13:24;;;;;;;10.25;1.83;;;;;;;;;;5061327;28;23349;-75
2022/05/27 07:15:50;;;;;;;7.07;1.80;;;;;;;;;;5065576;28;20687;-75
2022/05/27 07:18:17;;;;;;;13.05;1.90;;;;;;;;;;5063619;28;20053;-74
2022/05/27 07:20:44;;;;;;;9.65;1.83;;;;;;;;;;5063055;28;20058;-74
2022/05/27 07:23:10;;;;;;;13.45;2.60;;;;;;;;;;5067603;28;20108;-75
2022/05/27 07:25:37;;;;;;;9.55;1.80;;;;;;;;;;5080624;28;20062;-75
2022/05/27 07:28:06;;;;;;;10.55;1.80;;;;;;;;;;5069957;28;20428;-75
2022/05/27 07:30:36;;;;;;;10.32;2.05;;;;;;;;;;5084023;28;20052;-75
2022/05/27 07:33:02;;;;;;;11.23;1.88;;;;;;;;;;5065454;28;20044;-75
2022/05/27 07:35:29;;;;;;;11.35;2.17;;;;;;;;;;5078466;28;20052;-75
2022/05/27 07:37:55;;;;;;;7.65;2.20;;;;;;;;;;5084323;28;20056;-75
2022/05/27 07:40:21;;;;;;;10.73;2.05;;;;;;;;;;5065624;28;20136;-75
2022/05/27 07:42:48;;;;;;;9.65;2.15;;;;;;;;;;5045385;28;20136;-75
2022/05/27 07:45:16;;;;;;;9.63;2.08;;;;;;;;;;5063361;28;20087;-75
2022/05/27 07:47:42;;;;;;;8.93;2.10;;;;;;;;;;5078445;28;20135;-75
2022/05/27 07:50:11;;;;;;;11.00;2.40;;;;;;;;;;5083953;28;20048;-75
2022/05/27 07:52:42;;;;;;;10.77;2.30;;;;;;;;;;5080585;28;20102;-75
2022/05/27 07:55:09;;;;;;;11.07;2.17;;;;;;;;;;5071781;28;20048;-75
2022/05/27 07:57:40;;;;;;;11.95;2.55;;;;;;;;;;5083315;28;20048;-75
2022/05/27 08:00:08;;;;;;;13.45;2.80;;;;;;;;;;5046798;28;20857;-75
2022/05/27 08:02:34;;;;;;;9.45;2.50;;;;;;;;;;5065805;28;20135;-75
2022/05/27 08:05:01;;;;;;;8.95;2.05;;;;;;;;;;5064728;28;20481;-75
2022/05/27 08:07:27;;;;;;;10.65;2.00;;;;;;;;;;5066292;28;20128;-75
2022/05/27 08:09:53;;;;;;;7.72;1.85;;;;;;;;;;5062475;28;20056;-75
2022/05/27 08:12:20;;;;;;;15.90;2.47;;;;;;;;;;5061223;28;20525;-75
2022/05/27 08:14:46;;;;;;;15.82;2.47;;;;;;;;;;5076879;28;20748;-75
2022/05/27 08:17:12;;;;;;;13.10;2.50;;;;;;;;;;5083475;28;20059;-75
2022/05/27 08:19:39;;;;;;;15.52;2.67;;;;;;;;;;5083646;28;20049;-75
2022/05/27 08:22:05;;;;;;;7.70;1.80;;;;;;;;;;5083577;28;20873;-75
2022/05/27 08:24:33;;;;;;;10.63;2.58;;;;;;;;;;5082822;28;20214;-75
2022/05/27 08:26:59;;;;;;;12.65;2.45;;;;;;;;;;5056142;28;20140;-76
2022/05/27 08:29:27;;;;;;;9.73;2.35;;;;;;;;;;5047909;28;20056;-76
2022/05/27 08:31:53;;;;;;;12.40;2.30;;;;;;;;;;5089792;28;20134;-76
2022/05/27 08:39:53;;;;;;;9.95;2.10;;;;;;;;;;5077374;28;20049;-77
2022/05/27 08:42:25;;;;;;;11.25;2.50;;;;;;;;;;5050807;28;20049;-77
2022/05/27 08:45:10;;;;;;;11.85;2.20;;;;;;;;;;5052195;28;20061;-78
2022/05/27 08:47:57;;;;;;;8.98;2.15;;;;;;;;;;5061893;28;20147;-76
2022/05/27 08:50:23;;;;;;;10.90;2.60;;;;;;;;;;5063891;28;20056;-76
2022/05/27 08:52:59;;;;;;;11.05;2.10;;;;;;;;;;5073438;28;20061;-76
2022/05/27 09:01:16;;;;;;;8.30;1.95;;;;;;;;;;5058702;28;20064;-76
2022/05/27 09:03:54;;;;;;;8.63;2.20;;;;;;;;;;5062536;28;20056;-76
2022/05/27 09:06:25;;;;;;;12.30;2.33;;;;;;;;;;5064267;28;20056;-76
2022/05/27 09:08:58;;;;;;;11.23;1.92;;;;;;;;;;5081777;28;20060;-76
2022/05/27 09:11:26;;;;;;;9.98;2.05;;;;;;;;;;5069057;28;20053;-76
2022/05/27 09:14:09;;;;;;;8.88;2.50;;;;;;;;;;5070271;28;20135;-76
2022/05/27 09:16:39;;;;;;;11.65;2.05;;;;;;;;;;5078880;28;20051;-76
2022/05/27 09:19:32;;;;;;;20.17;2.13;;;;;;;;;;5076284;28;20258;-76
2022/05/27 09:22:17;;;;;;;6.03;1.73;;;;;;;;;;5058162;28;20048;-77
2022/05/27 09:24:46;;;;;;;9.10;1.80;;;;;;;;;;5068902;28;20060;-76
2022/05/27 09:27:13;;;;;;;9.48;1.92;;;;;;;;;;5072828;28;20055;-76
2022/05/27 09:29:48;;;;;;;10.23;2.10;;;;;;;;;;5054164;28;20044;-76
2022/05/27 09:32:40;;;;;;;8.30;2.00;;;;;;;;;;5057918;28;20083;-76
2022/05/27 09:35:10;;;;;;;9.63;2.05;;;;;;;;;;5066343;28;20875;-76
2022/05/27 09:38:00;;;;;;;7.43;2.20;;;;;;;;;;5068863;28;20052;-76
2022/05/27 09:40:27;;;;;;;9.48;2.20;;;;;;;;;;5076505;28;20061;-76
2022/05/27 09:43:01;;;;;;;11.57;2.33;;;;;;;;;;5065909;28;20055;-76
2022/05/27 09:45:29;;;;;;;13.25;2.40;;;;;;;;;;5079959;28;20060;-76
2022/05/27 09:48:00;;;;;;;11.18;2.42;;;;;;;;;;5074072;28;20063;-76
2022/05/27 09:50:26;;;;;;;;;;;;;;;;;;5048029;28;20055;-77
2022/05/27 09:52:56;;;;;;;9.73;2.53;;;;;;;;;;5071049;28;44811;-76
2022/05/27 09:55:23;;;;;;;6.90;2.17;;;;;;;;;;5055227;28;20812;-76
2022/05/27 09:57:55;;;;;;;11.05;2.50;;;;;;;;;;5051268;28;20199;-76
2022/05/27 10:00:34;;;;;;;10.02;1.95;;;;;;;;;;5063933;28;20056;-76
2022/05/27 10:03:18;;;;;;;10.25;2.20;;;;;;;;;;5073465;28;20057;-76
2022/05/27 10:05:49;;;;;;;11.25;2.38;;;;;;;;;;5080042;28;20057;-77
2022/05/27 10:08:24;;;;;;;11.77;2.47;;;;;;;;;;5078513;28;20056;-76
2022/05/27 10:11:04;;;;;;;7.43;2.03;;;;;;;;;;5065323;28;20053;-76
2022/05/27 10:13:34;;;;;;;8.68;2.00;;;;;;;;;;5079223;28;20060;-76
2022/05/27 10:16:08;;;;;;;9.27;2.08;;;;;;;;;;5065143;28;20136;-77
2022/05/27 10:18:34;;;;;;;10.82;2.30;;;;;;;;;;5080798;28;20071;-77
2022/05/27 10:21:04;;;;;;;14.40;2.50;;;;;;;;;;5067638;28;20060;-77
2022/05/27 10:23:33;;;;;;;10.02;2.00;;;;;;;;;;5064588;28;20079;-76
2022/05/27 10:26:17;;;;;;;10.15;2.40;;;;;;;;;;5064036;28;20049;-77
2022/05/27 10:28:43;;;;;;;8.50;2.45;;;;;;;;;;5068020;28;20052;-77
2022/05/27 10:31:15;;;;;;;13.50;2.42;;;;;;;;;;5081283;28;20056;-77
2022/05/27 10:33:43;;;;;;;11.52;2.22;;;;;;;;;;5070418;28;20048;-77
2022/05/27 10:36:28;;;;;;;9.30;2.38;;;;;;;;;;5085037;28;20568;-77
2022/05/27 10:39:02;;;;;;;8.32;2.17;;;;;;;;;;5072399;28;20144;-77
2022/05/27 10:41:32;;;;;;;9.63;1.98;;;;;;;;;;5066897;28;20190;-77
2022/05/27 10:43:59;;;;;;;6.95;1.90;;;;;;;;;;5047515;28;20132;-75
2022/05/27 10:46:30;;;;;;;11.40;2.38;;;;;;;;;;5078668;28;20159;-75
2022/05/27 10:49:03;;;;;;;9.55;1.90;;;;;;;;;;5084475;28;20315;-75
2022/05/27 10:51:38;;;;;;;10.10;2.45;;;;;;;;;;5074700;28;20053;-76
2022/05/27 10:54:14;;;;;;;8.25;1.92;;;;;;;;;;5057520;28;20064;-78
2022/05/27 11:02:04;;;;;;;12.15;2.70;;;;;;;;;;5077982;28;20056;-76
2022/05/27 11:02:44;;;;;;;9.13;2.30;;;;;;;;;;5070949;28;20970;-77
2022/05/27 11:05:20;;;;;;;13.32;2.67;;;;;;;;;;5059536;28;21070;-75
2022/05/27 11:08:05;;;;;;;11.15;2.15;;;;;;;;;;5061959;28;20315;-75
2022/05/27 11:10:40;;;;;;;11.60;2.53;;;;;;;;;;5076930;28;20049;-76
2022/05/27 11:16:13;;;;;;;10.70;2.10;;;;;;;;;;5080802;28;20060;-75
2022/05/27 11:18:47;;;;;;;12.13;2.30;;;;;;;;;;5076243;28;20107;-75
2022/05/27 11:21:32;;;;;;;9.75;2.53;;;;;;;;;;5081364;28;20056;-76
2022/05/27 11:24:24;;;;;;;12.43;2.50;;;;;;;;;;5065161;28;20088;-75
2022/05/27 11:26:50;;;;;;;13.35;2.63;;;;;;;;;;5049420;28;20131;-75
2022/05/27 11:29:36;;;;;;;12.60;2.75;;;;;;;;;;5061833;28;20132;-76
2022/05/27 11:32:08;;;;;;;9.60;2.35;;;;;;;;;;5077859;28;20503;-76
2022/05/27 11:34:43;;;;;;;9.98;2.15;;;;;;;;;;5067914;28;21000;-76
2022/05/27 11:37:29;;;;;;;10.75;2.20;;;;;;;;;;5069005;28;20063;-75
2022/05/27 11:39:57;;;;;;;10.85;2.28;;;;;;;;;;5070763;28;20056;-75
2022/05/27 11:42:44;;;;;;;10.45;2.30;;;;;;;;;;5063048;28;20159;-75
2022/05/27 11:45:24;;;;;;;14.43;2.40;;;;;;;;;;5064105;28;20048;-75
2022/05/27 11:47:59;;;;;;;8.65;2.20;;;;;;;;;;5061138;28;20056;-75
2022/05/27 11:50:44;;;;;;;7.93;1.98;;;;;;;;;;5073769;28;20509;-75
2022/05/27 11:53:28;;;;;;;6.82;1.70;;;;;;;;;;5077733;28;20056;-75
2022/05/27 11:56:14;;;;;;;14.15;2.03;;;;;;;;;;5069339;28;20186;-76
2022/05/27 11:58:43;;;;;;;9.55;2.47;;;;;;;;;;5070598;28;20131;-76
2022/05/27 12:01:28;;;;;;;8.80;1.90;;;;;;;;;;5064876;28;20196;-76
2022/05/27 12:03:58;;;;;;;8.93;2.42;;;;;;;;;;5050380;28;20056;-76
2022/05/27 12:06:38;;;;;;;6.68;1.90;;;;;;;;;;5051437;28;20053;-76
2022/05/27 12:09:07;;;;;;;9.68;2.10;;;;;;;;;;5065074;28;20080;-76
2022/05/27 12:11:39;;;;;;;9.32;2.30;;;;;;;;;;5067046;28;20167;-77
2022/05/27 12:14:14;;;;;;;7.53;1.90;;;;;;;;;;5064506;28;20516;-76
2022/05/27 12:16:43;;;;;;;9.25;2.10;;;;;;;;;;5082060;28;20381;-76
2022/05/27 12:19:13;;;;;;;9.07;2.00;;;;;;;;;;5082021;28;20659;-79
2022/05/27 12:21:43;;;;;;;11.85;1.92;;;;;;;;;;5052927;28;20247;-80
2022/05/27 12:24:19;;;;;;;11.80;2.03;;;;;;;;;;5054488;28;20080;-77
2022/05/27 12:26:51;;;;;;;10.32;2.97;;;;;;;;;;5066443;28;20503;-77
2022/05/27 12:29:19;;;;;;;11.05;2.70;;;;;;;;;;5078903;28;20281;-77
2022/05/27 12:31:50;;;;;;;10.20;2.30;;;;;;;;;;5058037;28;20063;-77
2022/05/27 12:34:26;;;;;;;11.15;3.22;;;;;;;;;;5083342;28;20163;-76
2022/05/27 12:37:13;;;;;;;9.23;1.90;;;;;;;;;;5059830;28;20064;-76
2022/05/27 12:39:40;;;;;;;14.45;3.78;;;;;;;;;;5074315;28;21137;-74
2022/05/27 12:42:09;;;;;;;11.00;2.60;;;;;;;;;;5083691;28;20048;-77
2022/05/27 12:44:36;;;;;;;13.43;4.63;;;;;;;;;;5080836;28;20053;-78
2022/05/27 12:47:04;;;;;;;10.38;2.20;;;;;;;;;;5080727;28;20059;-79
2022/05/27 12:49:35;;;;;;;12.60;1.60;;;;;;;;;;5083951;28;20128;-80
2022/05/27 12:52:03;;;;;;;8.75;1.58;;;;;;;;;;5082374;28;20045;-80
2022/05/27 12:54:41;;;;;;;9.38;1.77;;;;;;;;;;5060278;28;20973;-79
2022/05/27 13:03:02;;;;;;;8.52;2.00;;;;;;;;;;5083176;28;20846;-77
2022/05/27 13:05:49;;;;;;;9.10;1.90;;;;;;;;;;5077392;28;20060;-76
2022/05/27 13:08:19;;;;;;;33.28;5.47;;;;;;;;;;5070854;28;20187;-78
2022/05/27 13:10:45;;;;;;;;;;;;;;;;;;5074527;28;20568;-78
2022/05/27 13:13:12;;;;;;;13.20;2.33;;;;;;;;;;5063929;28;46790;-78
2022/05/27 13:15:44;;;;;;;12.63;1.73;;;;;;;;;;5052257;28;20139;-77
2022/05/27 13:18:28;;;;;;;8.20;1.70;;;;;;;;;;5066288;28;20064;-77
2022/05/27 13:21:14;;;;;;;61.40;6.03;;;;;;;;;;5052497;28;20131;-78
2022/05/27 13:23:51;;;;;;;7.53;1.90;;;;;;;;;;5064771;28;20870;-79
2022/05/27 13:26:25;;;;;;;9.05;1.98;;;;;;;;;;5078775;28;20197;-78
2022/05/27 13:28:53;;;;;;;9.93;1.92;;;;;;;;;;5060683;28;20044;-79
2022/05/27 13:31:21;;;;;;;8.85;1.85;;;;;;;;;;5069630;28;20059;-79
2022/05/27 13:33:59;;;;;;;12.13;1.80;;;;;;;;;;5082920;28;20049;-79
2022/05/27 13:36:29;;;;;;;8.10;2.03;;;;;;;;;;5067260;28;20062;-79
2022/05/27 13:39:00;;;;;;;9.85;1.95;;;;;;;;;;5066408;28;20061;-79
2022/05/27 13:41:30;;;;;;;8.85;1.50;;;;;;;;;;5066689;28;20124;-79
2022/05/27 13:43:56;;;;;;;10.52;2.25;;;;;;;;;;5076148;28;20056;-79
2022/05/27 13:46:26;;;;;;;9.00;1.52;;;;;;;;;;5054097;28;20061;-78
2022/05/27 13:49:01;;;;;;;9.07;1.88;;;;;;;;;;5071612;28;20052;-79
2022/05/27 13:51:27;;;;;;;11.23;2.33;;;;;;;;;;5059683;28;20132;-79
2022/05/27 13:53:54;;;;;;;10.73;2.28;;;;;;;;;;5086186;28;20365;-79
2022/05/27 13:56:23;;;;;;;9.18;1.90;;;;;;;;;;5083568;28;21826;-79
2022/05/27 13:59:04;;;;;;;7.00;1.63;;;;;;;;;;5100464;28;20052;-79
2022/05/27 14:01:37;;;;;;;14.07;2.50;;;;;;;;;;5073234;28;20104;-79
2022/05/27 14:04:04;;;;;;;10.40;1.80;;;;;;;;;;5105363;28;20138;-79
2022/05/27 14:06:31;;;;;;;10.35;1.95;;;;;;;;;;5087295;28;20057;-79
2022/05/27 14:09:08;;;;;;;8.65;2.00;;;;;;;;;;5087381;28;20049;-79
2022/05/27 14:11:35;;;;;;;9.65;1.80;;;;;;;;;;5091465;28;20111;-80
2022/05/27 14:14:01;;;;;;;11.88;1.92;;;;;;;;;;5074145;28;20053;-80
2022/05/27 14:16:29;;;;;;;8.90;1.80;;;;;;;;;;5062662;28;20124;-80
2022/05/27 14:18:57;;;;;;;9.75;1.83;;;;;;;;;;5054135;28;20048;-81
2022/05/27 14:24:18;;;;;;;13.27;2.28;;;;;;;;;;5094227;28;20131;-80
2022/05/27 14:26:44;;;;;;;10.55;2.00;;;;;;;;;;5063809;28;20136;-80
2022/05/27 14:29:13;;;;;;;11.82;2.20;;;;;;;;;;5082497;28;20118;-80
2022/05/27 14:31:40;;;;;;;11.18;2.17;;;;;;;;;;5074554;28;20139;-82
2022/05/27 14:34:10;;;;;;;13.63;1.92;;;;;;;;;;5074993;28;20083;-78
2022/05/27 14:36:42;;;;;;;9.70;2.00;;;;;;;;;;5074564;28;20048;-80
2022/05/27 14:39:08;;;;;;;10.40;2.20;;;;;;;;;;5054772;28;20480;-80
2022/05/27 14:41:37;;;;;;;8.20;2.22;;;;;;;;;;5053909;28;20045;-79
2022/05/27 14:44:05;;;;;;;10.30;1.95;;;;;;;;;;5063686;28;20059;-80
2022/05/27 14:46:32;;;;;;;8.93;1.63;;;;;;;;;;5082789;28;20665;-78
2022/05/27 14:49:19;;;;;;;8.63;1.33;;;;;;;;;;5073372;28;20064;-76
2022/05/27 14:51:46;;;;;;;10.02;1.65;;;;;;;;;;5062583;28;20064;-78
2022/05/27 14:54:34;;;;;;;8.52;1.48;;;;;;;;;;5055740;28;20055;-77
2022/05/27 14:57:09;;;;;;;8.40;1.67;;;;;;;;;;5079849;28;20118;-78
2022/05/27 14:59:37;;;;;;;10.55;1.85;;;;;;;;;;5065891;28;20508;-77
2022/05/27 15:02:03;;;;;;;9.00;1.48;;;;;;;;;;5068988;28;20083;-78
2022/05/27 15:04:30;;;;;;;9.85;1.75;;;;;;;;;;5069965;28;20110;-78
2022/05/27 15:06:58;;;;;;;12.52;1.83;;;;;;;;;;5075145;28;20049;-78
2022/05/27 15:09:32;;;;;;;7.60;1.60;;;;;;;;;;5072507;28;20421;-78
2022/05/27 15:12:20;;;;;;;9.35;2.00;;;;;;;;;;5063408;28;20521;-80
2022/05/27 15:14:48;;;;;;;10.95;1.60;;;;;;;;;;5068718;28;20171;-80
2022/05/27 15:17:33;;;;;;;14.45;2.00;;;;;;;;;;5078551;28;20091;-79
2022/05/27 15:20:14;;;;;;;11.63;2.08;;;;;;;;;;5075274;28;20145;-78
2022/05/27 15:22:43;;;;;;;9.02;2.17;;;;;;;;;;5082135;28;20053;-79
2022/05/27 15:25:11;;;;;;;12.70;2.97;;;;;;;;;;5077573;28;20502;-79
2022/05/27 15:33:44;;;;;;;6.40;1.38;;;;;;;;;;5000277;28;20166;-79
2022/05/27 15:36:12;;;;;;;6.82;1.63;;;;;;;;;;5002003;28;20569;-79
2022/05/27 15:38:39;;;;;;;7.93;1.80;;;;;;;;;;5019748;28;20067;-78
2022/05/27 15:41:07;;;;;;;6.22;1.52;;;;;;;;;;5057675;28;20509;-78
2022/05/27 15:43:35;;;;;;;7.03;1.55;;;;;;;;;;5069232;28;20056;-78